createdAt,value
2022-09-12T00:01:05.359Z,100632.31
2022-09-12T00:03:33.241Z,100614.06
2022-09-12T00:06:01.342Z,100628.72
2022-09-12T00:08:29.409Z,100623.31
2022-09-12T00:10:58.703Z,100600.75
2022-09-12T00:13:26.549Z,100619.16
2022-09-12T00:15:54.465Z,100628.13
2022-09-12T00:18:22.366Z,100486.97
2022-09-12T00:20:50.304Z,100623.94
2022-09-12T00:23:18.363Z,100584.31
2022-09-12T00:25:48.293Z,100608.00
2022-09-12T00:28:19.207Z,100593.97
2022-09-12T00:30:49.026Z,100591.31
2022-09-12T00:33:18.037Z,100597.06
2022-09-12T00:35:47.997Z,100597.00
2022-09-12T00:38:17.264Z,100599.69
2022-09-12T00:40:45.765Z,100585.19
2022-09-12T00:43:15.917Z,100564.06
2022-09-12T00:45:45.505Z,100579.59
2022-09-12T00:48:22.547Z,100598.94
2022-09-12T00:50:51.410Z,100565.53
2022-09-12T00:53:20.425Z,100594.44
2022-09-12T00:55:52.468Z,100531.13
2022-09-12T00:58:24.281Z,100585.19
2022-09-12T01:00:53.679Z,100546.88
2022-09-12T01:03:24.321Z,100580.28
2022-09-12T01:06:02.953Z,100531.72
2022-09-12T01:08:31.113Z,100508.97
2022-09-12T01:10:59.175Z,100556.09
2022-09-12T01:13:27.658Z,100546.44
2022-09-12T01:15:57.731Z,100581.56
2022-09-12T01:18:32.260Z,100584.19
2022-09-12T01:21:16.710Z,100576.66
2022-09-12T01:24:08.742Z,100576.31
2022-09-12T01:26:59.296Z,100563.31
2022-09-12T01:29:45.052Z,100577.13
2022-09-12T01:32:22.638Z,100581.69
2022-09-12T01:34:55.777Z,100518.47
2022-09-12T01:37:33.302Z,100554.91
2022-09-12T01:40:15.894Z,100568.56
2022-09-12T01:42:50.743Z,100556.16
2022-09-12T01:45:25.561Z,100577.09
2022-09-12T01:47:59.993Z,100564.75
2022-09-12T01:50:32.889Z,100570.56
2022-09-12T01:53:06.028Z,100557.94
2022-09-12T01:55:38.810Z,100570.06
2022-09-12T01:58:13.332Z,100568.81
2022-09-12T02:00:48.295Z,100571.13
2022-09-12T02:03:21.594Z,100530.13
2022-09-12T02:05:54.300Z,100556.84
2022-09-12T02:08:27.141Z,100559.47
2022-09-12T02:11:00.334Z,100562.06
2022-09-12T02:13:33.399Z,100485.88
2022-09-12T02:16:09.535Z,100534.63
2022-09-12T02:18:42.203Z,100537.50
2022-09-12T02:21:10.460Z,100549.47
2022-09-12T02:23:42.149Z,100370.78
2022-09-12T02:26:16.600Z,100525.19
2022-09-12T02:28:44.850Z,100497.03
2022-09-12T02:31:20.364Z,100553.47
2022-09-12T02:33:54.535Z,100559.56
2022-09-12T02:36:33.374Z,100543.69
2022-09-12T02:39:01.461Z,100555.06
2022-09-12T02:41:29.665Z,100553.06
2022-09-12T02:43:58.012Z,100547.19
2022-09-12T02:46:30.754Z,100545.84
2022-09-12T02:49:00.556Z,100548.22
2022-09-12T02:51:28.844Z,100516.50
2022-09-12T02:53:57.127Z,100544.84
2022-09-12T02:56:28.408Z,100428.06
2022-09-12T02:58:59.979Z,100521.16
2022-09-12T03:01:38.476Z,100535.34
2022-09-12T03:04:28.224Z,100536.09
2022-09-12T03:07:09.187Z,100538.94
2022-09-12T03:09:44.617Z,100516.19
2022-09-12T03:12:23.679Z,100542.31
2022-09-12T03:15:05.770Z,100421.50
2022-09-12T03:17:50.563Z,100529.69
2022-09-12T03:20:31.855Z,100542.06
2022-09-12T03:23:04.244Z,100536.16
2022-09-12T03:25:37.286Z,100507.09
2022-09-12T03:28:09.389Z,100528.28
2022-09-12T03:30:40.691Z,100438.09
2022-09-12T03:33:13.261Z,100474.53
2022-09-12T03:35:43.699Z,100525.66
2022-09-12T03:38:11.805Z,100491.03
2022-09-12T03:40:40.172Z,100540.56
2022-09-12T03:43:09.485Z,100540.72
2022-09-12T03:45:38.263Z,100537.53
2022-09-12T03:48:07.624Z,100534.53
2022-09-12T03:50:35.629Z,100539.34
2022-09-12T03:53:05.286Z,100532.69
2022-09-12T03:55:33.157Z,100533.47
2022-09-12T03:58:01.354Z,100536.22
2022-09-12T04:00:29.248Z,100537.22
2022-09-12T04:02:58.389Z,100539.84
2022-09-12T04:05:27.337Z,100481.38
2022-09-12T04:07:55.255Z,100531.25
2022-09-12T04:10:24.544Z,100530.44
2022-09-12T04:12:52.344Z,100541.88
2022-09-12T04:15:20.577Z,100543.72
2022-09-12T04:17:48.439Z,100539.06
2022-09-12T04:20:16.775Z,100516.63
2022-09-12T04:22:44.714Z,100496.00
2022-09-12T04:25:13.328Z,100528.59
2022-09-12T04:27:42.898Z,100532.50
2022-09-12T04:30:11.615Z,100538.88
2022-09-12T04:32:40.912Z,100541.13
2022-09-12T04:35:09.152Z,100513.94
2022-09-12T04:37:36.980Z,100539.84
2022-09-12T04:40:05.591Z,100546.88
2022-09-12T04:42:33.577Z,100527.03
2022-09-12T04:45:03.551Z,100547.84
2022-09-12T04:47:31.454Z,100511.22
2022-09-12T04:49:59.235Z,100543.38
2022-09-12T04:52:27.099Z,100468.28
2022-09-12T04:54:55.064Z,100544.09
2022-09-12T04:57:22.986Z,100514.16
2022-09-12T04:59:50.801Z,100503.06
2022-09-12T05:02:20.270Z,100544.53
2022-09-12T05:04:48.127Z,100548.03
2022-09-12T05:07:16.008Z,100496.94
2022-09-12T05:09:43.912Z,100556.06
2022-09-12T05:12:11.927Z,100532.31
2022-09-12T05:14:40.580Z,100554.59
2022-09-12T05:17:08.448Z,100556.25
2022-09-12T05:19:38.144Z,100558.75
2022-09-12T05:22:07.074Z,100555.19
2022-09-12T05:24:35.284Z,100478.16
2022-09-12T05:27:04.743Z,100555.38
2022-09-12T05:29:34.123Z,100489.72
2022-09-12T05:32:02.258Z,100549.91
2022-09-12T05:34:30.142Z,100542.13
2022-09-12T05:36:59.520Z,100495.50
2022-09-12T05:39:27.462Z,100560.09
2022-09-12T05:41:56.345Z,100548.91
2022-09-12T05:44:25.030Z,100544.69
2022-09-12T05:46:53.655Z,100551.09
2022-09-12T05:49:22.669Z,100550.28
2022-09-12T05:51:51.569Z,100501.38
2022-09-12T05:54:21.281Z,100551.25
2022-09-12T05:56:49.442Z,100566.03
2022-09-12T05:59:19.007Z,100563.47
2022-09-12T06:01:47.331Z,100477.06
2022-09-12T06:04:15.825Z,100556.34
2022-09-12T06:06:45.619Z,100482.25
2022-09-12T06:09:15.008Z,100564.19
2022-09-12T06:11:45.768Z,100550.78
2022-09-12T06:14:15.850Z,100503.91
2022-09-12T06:16:43.973Z,100557.25
2022-09-12T06:19:16.362Z,100541.72
2022-09-12T06:21:44.891Z,100542.97
2022-09-12T06:24:13.062Z,100538.69
2022-09-12T06:26:41.198Z,100544.44
2022-09-12T06:29:11.409Z,100535.41
2022-09-12T06:31:41.370Z,100542.06
2022-09-12T06:34:11.479Z,100538.94
2022-09-12T06:36:41.684Z,100535.19
2022-09-12T06:39:11.148Z,100537.16
2022-09-12T06:41:43.761Z,100536.13
2022-09-12T06:44:15.980Z,100541.00
2022-09-12T06:46:44.318Z,100529.31
2022-09-12T06:49:12.839Z,100537.81
2022-09-12T06:51:41.988Z,100540.16
2022-09-12T06:54:10.742Z,100537.66
2022-09-12T06:56:38.864Z,100534.06
2022-09-12T06:59:06.693Z,100540.72
2022-09-12T07:01:35.934Z,100542.38
2022-09-12T07:04:05.265Z,100525.47
2022-09-12T07:06:38.104Z,100535.81
2022-09-12T07:09:09.198Z,100514.97
2022-09-12T07:11:38.491Z,100534.44
2022-09-12T07:14:07.926Z,100532.56
2022-09-12T07:16:37.659Z,100534.97
2022-09-12T07:19:08.281Z,100478.81
2022-09-12T07:21:39.978Z,100528.28
2022-09-12T07:24:09.615Z,100533.13
2022-09-12T07:26:37.737Z,100513.56
2022-09-12T07:29:34.897Z,100530.31
2022-09-12T07:31:55.709Z,100525.69
2022-09-12T07:34:23.564Z,100499.41
2022-09-12T07:36:51.652Z,100519.09
2022-09-12T07:39:20.070Z,100520.09
2022-09-12T07:41:48.069Z,100513.34
2022-09-12T07:44:16.044Z,100519.69
2022-09-12T07:46:43.910Z,100513.84
2022-09-12T07:49:14.530Z,100472.22
2022-09-12T07:51:42.390Z,100516.56
2022-09-12T07:54:11.148Z,100514.84
2022-09-12T07:56:40.904Z,100519.97
2022-09-12T07:59:09.186Z,100520.31
2022-09-12T08:01:37.167Z,100527.81
2022-09-12T08:04:06.072Z,100525.66
2022-09-12T08:06:36.977Z,100522.28
2022-09-12T08:09:07.832Z,100504.97
2022-09-12T08:11:35.843Z,100523.59
2022-09-12T08:14:05.832Z,100519.09
2022-09-12T08:16:34.754Z,100471.13
2022-09-12T08:19:03.558Z,100492.22
2022-09-12T08:21:33.295Z,100521.09
2022-09-12T08:24:04.676Z,100517.25
2022-09-12T08:26:34.735Z,100515.81
2022-09-12T08:29:04.113Z,100516.09
2022-09-12T08:31:36.562Z,100476.34
2022-09-12T08:34:06.124Z,100408.28
2022-09-12T08:36:34.537Z,100445.91
2022-09-12T08:39:07.353Z,100508.28
2022-09-12T08:41:39.931Z,100376.91
2022-09-12T08:44:40.413Z,100475.78
2022-09-12T08:47:18.300Z,100364.00
2022-09-12T08:49:54.702Z,100487.22
2022-09-12T08:52:28.301Z,100471.84
2022-09-12T08:54:58.598Z,100505.56
2022-09-12T08:57:26.685Z,100505.81
2022-09-12T08:59:55.097Z,100510.41
2022-09-12T09:02:45.860Z,100498.34
2022-09-12T09:05:20.890Z,100447.44
2022-09-12T09:08:10.718Z,100502.97
2022-09-12T09:10:49.314Z,100504.63
2022-09-12T09:13:56.705Z,100499.84
2022-09-12T09:16:32.060Z,100495.50
2022-09-12T09:19:03.616Z,100500.28
2022-09-12T09:21:38.645Z,100459.47
2022-09-12T09:24:11.172Z,100478.13
2022-09-12T09:26:46.394Z,100501.78
2022-09-12T09:29:18.939Z,100497.16
2022-09-12T09:31:49.983Z,100439.75
2022-09-12T09:34:21.797Z,100490.00
2022-09-12T09:36:53.371Z,100491.56
2022-09-12T09:39:32.677Z,100431.34
2022-09-12T09:42:14.009Z,100444.03
2022-09-12T09:44:42.193Z,100478.78
2022-09-12T09:47:12.787Z,100484.03
2022-09-12T09:49:40.869Z,100480.31
2022-09-12T09:52:10.293Z,100480.50
2022-09-12T09:54:42.906Z,100486.13
2022-09-12T09:57:44.590Z,100466.19
2022-09-12T10:00:30.585Z,100421.59
2022-09-12T10:03:04.717Z,100474.19
2022-09-12T10:05:35.639Z,100475.50
2022-09-12T10:08:11.407Z,100474.00
2022-09-12T10:10:39.367Z,100472.75
2022-09-12T10:13:11.507Z,100471.69
2022-09-12T10:15:39.581Z,100449.16
2022-09-12T10:18:07.518Z,100469.25
2022-09-12T10:20:38.841Z,100466.66
2022-09-12T10:23:30.196Z,100462.13
2022-09-12T10:26:01.846Z,100462.88
2022-09-12T10:28:37.392Z,100455.22
2022-09-12T10:31:06.209Z,100452.22
2022-09-12T10:33:43.460Z,100453.09
2022-09-12T10:36:12.342Z,100463.84
2022-09-12T10:38:40.427Z,100421.66
2022-09-12T10:41:11.339Z,100333.25
2022-09-12T10:43:42.365Z,100435.63
2022-09-12T10:46:28.750Z,100403.69
2022-09-12T10:49:31.474Z,100446.03
2022-09-12T10:52:18.463Z,100445.28
2022-09-12T10:54:46.688Z,100445.91
2022-09-12T10:57:44.275Z,100449.38
2022-09-12T11:00:17.941Z,100421.03
2022-09-12T11:02:56.354Z,100421.88
2022-09-12T11:05:39.032Z,100433.41
2022-09-12T11:08:22.765Z,100423.88
2022-09-12T11:10:58.648Z,100433.78
2022-09-12T11:13:50.253Z,100420.63
2022-09-12T11:16:28.145Z,100409.09
2022-09-12T11:19:14.116Z,100406.16
2022-09-12T11:22:04.246Z,100424.72
2022-09-12T11:24:54.238Z,100369.16
2022-09-12T11:27:35.034Z,100380.78
2022-09-12T11:30:07.531Z,100381.16
2022-09-12T11:33:05.848Z,100381.38
2022-09-12T11:35:36.851Z,100415.94
2022-09-12T11:38:34.195Z,100408.50
2022-09-12T11:41:04.861Z,100404.88
2022-09-12T11:43:39.582Z,100245.91
2022-09-12T11:46:15.677Z,100395.25
2022-09-12T11:48:49.072Z,100390.78
2022-09-12T11:51:27.159Z,100387.03
2022-09-12T11:54:05.797Z,100392.34
2022-09-12T11:56:39.345Z,100391.66
2022-09-12T11:59:16.895Z,100380.59
2022-09-12T12:01:49.465Z,100393.59
2022-09-12T12:04:25.906Z,100387.19
2022-09-12T12:07:03.533Z,100372.41
2022-09-12T12:09:32.049Z,100298.19
2022-09-12T12:12:04.677Z,100337.50
2022-09-12T12:14:39.741Z,100389.59
2022-09-12T12:17:15.566Z,100370.59
2022-09-12T12:19:44.083Z,100364.25
2022-09-12T12:22:19.376Z,100385.34
2022-09-12T12:25:08.047Z,100383.94
2022-09-12T12:27:52.020Z,100261.03
2022-09-12T12:31:05.635Z,100367.97
2022-09-12T12:34:15.806Z,100366.97
2022-09-12T12:36:44.792Z,100364.59
2022-09-12T12:40:05.998Z,100363.19
2022-09-12T12:43:31.544Z,100362.41
2022-09-12T12:46:11.701Z,100357.66
2022-09-12T12:48:57.958Z,100352.09
2022-09-12T12:51:36.396Z,100332.66
2022-09-12T12:54:12.338Z,100356.31
2022-09-12T12:56:43.101Z,100344.97
2022-09-12T12:59:17.485Z,100347.44
2022-09-12T13:01:52.800Z,100346.59
2022-09-12T13:04:26.055Z,100342.66
2022-09-12T13:07:05.841Z,100314.59
2022-09-12T13:09:40.189Z,100209.63
2022-09-12T13:12:11.699Z,100328.34
2022-09-12T13:14:54.557Z,100298.25
2022-09-12T13:17:31.634Z,100307.84
2022-09-12T13:20:28.957Z,100321.75
2022-09-12T13:22:58.991Z,100319.09
2022-09-12T13:25:30.416Z,100314.97
2022-09-12T13:27:59.683Z,100308.78
2022-09-12T13:30:30.019Z,100299.06
2022-09-12T13:32:59.975Z,100304.13
2022-09-12T13:35:38.687Z,100302.53
2022-09-12T13:38:16.129Z,100304.72
2022-09-12T13:40:58.205Z,100278.72
2022-09-12T13:43:37.804Z,100241.13
2022-09-12T13:46:08.455Z,100287.47
2022-09-12T13:48:36.563Z,100277.84
2022-09-12T13:51:06.130Z,100273.63
2022-09-12T13:53:43.411Z,100238.00
2022-09-12T13:56:18.013Z,100267.53
2022-09-12T13:58:54.198Z,100263.34
2022-09-12T14:01:24.480Z,100178.84
2022-09-12T14:04:12.085Z,100156.56
2022-09-12T14:06:49.689Z,100232.06
2022-09-12T14:09:25.263Z,100259.25
2022-09-12T14:11:54.496Z,100176.00
2022-09-12T14:14:31.196Z,100208.50
2022-09-12T14:17:00.818Z,100250.28
2022-09-12T14:19:29.881Z,100246.63
2022-09-12T14:21:59.047Z,100246.06
2022-09-12T14:24:27.382Z,100238.16
2022-09-12T14:26:57.741Z,100242.41
2022-09-12T14:29:26.624Z,100241.41
2022-09-12T14:32:06.976Z,100192.53
2022-09-12T14:34:34.952Z,100197.44
2022-09-12T14:37:08.733Z,100132.59
2022-09-12T14:39:41.282Z,100232.81
2022-09-12T14:42:17.591Z,100219.59
2022-09-12T14:44:56.137Z,100218.19
2022-09-12T14:47:28.129Z,100209.28
2022-09-12T14:49:56.211Z,100208.28
2022-09-12T14:52:30.201Z,100215.06
2022-09-12T14:55:00.127Z,100214.75
2022-09-12T14:57:40.210Z,100201.50
2022-09-12T15:00:16.184Z,100205.69
2022-09-12T15:02:46.009Z,100177.28
2022-09-12T15:05:23.083Z,100205.44
2022-09-12T15:07:56.459Z,100203.50
2022-09-12T15:10:28.606Z,100208.94
2022-09-12T15:13:14.309Z,100201.16
2022-09-12T15:15:45.012Z,100205.28
2022-09-12T15:18:15.042Z,100193.72
2022-09-12T15:20:45.100Z,100177.91
2022-09-12T15:23:17.027Z,100194.91
2022-09-12T15:25:45.277Z,100196.69
2022-09-12T15:28:20.134Z,100190.53
2022-09-12T15:30:51.278Z,100148.44
2022-09-12T15:33:22.951Z,100126.94
2022-09-12T15:35:52.298Z,100014.34
2022-09-12T15:38:24.397Z,100159.00
2022-09-12T15:40:54.977Z,100178.72
2022-09-12T15:43:24.953Z,100174.69
2022-09-12T15:45:53.419Z,100156.84
2022-09-12T15:48:22.891Z,100180.03
2022-09-12T15:50:50.949Z,100176.22
2022-09-12T15:53:18.878Z,100171.38
2022-09-12T15:55:46.786Z,100134.31
2022-09-12T15:58:14.683Z,100048.50
2022-09-12T16:00:42.672Z,100159.50
2022-09-12T16:03:21.016Z,99955.94
2022-09-12T16:05:50.827Z,100149.22
2022-09-12T16:08:18.765Z,100055.91
2022-09-12T16:10:48.930Z,100156.69
2022-09-12T16:13:16.611Z,100154.63
2022-09-12T16:15:44.521Z,100141.03
2022-09-12T16:18:13.111Z,100158.00
2022-09-12T16:20:41.658Z,100146.44
2022-09-12T16:23:12.572Z,100152.75
2022-09-12T16:25:41.067Z,100139.44
2022-09-12T16:28:08.925Z,100137.22
2022-09-12T16:30:37.415Z,100105.47
2022-09-12T16:33:05.440Z,100132.31
2022-09-12T16:35:33.700Z,100132.41
2022-09-12T16:38:01.997Z,100127.34
2022-09-12T16:40:31.548Z,100100.13
2022-09-12T16:42:59.405Z,100124.25
2022-09-12T16:45:27.360Z,100031.63
2022-09-12T16:47:55.596Z,100117.59
2022-09-12T16:50:23.821Z,100120.69
2022-09-12T16:52:51.740Z,100118.38
2022-09-12T16:55:19.632Z,100058.09
2022-09-12T16:57:49.488Z,100077.09
2022-09-12T17:00:17.624Z,100115.16
2022-09-12T17:02:45.745Z,100106.78
2022-09-12T17:05:15.970Z,100100.38
2022-09-12T17:07:43.637Z,100110.41
2022-09-12T17:10:11.591Z,99961.34
2022-09-12T17:12:39.514Z,100099.28
2022-09-12T17:15:09.934Z,100095.72
2022-09-12T17:17:38.087Z,100071.22
2022-09-12T17:20:06.552Z,100080.75
2022-09-12T17:22:35.056Z,100084.69
2022-09-12T17:25:02.884Z,100028.66
2022-09-12T17:27:30.781Z,100102.94
2022-09-12T17:29:58.683Z,100107.75
2022-09-12T17:32:27.852Z,100081.50
2022-09-12T17:34:55.713Z,100048.53
2022-09-12T17:37:23.586Z,100078.56
2022-09-12T17:39:51.639Z,100092.38
2022-09-12T17:42:20.763Z,100081.50
2022-09-12T17:44:48.650Z,100080.63
2022-09-12T17:47:16.980Z,100017.16
2022-09-12T17:49:46.222Z,100087.84
2022-09-12T17:52:14.370Z,100016.75
2022-09-12T17:54:42.305Z,100030.09
2022-09-12T17:57:10.192Z,100087.44
2022-09-12T17:59:38.105Z,100090.63
2022-09-12T18:02:14.440Z,100070.28
2022-09-12T18:04:45.855Z,100093.59
2022-09-12T18:07:16.115Z,100095.25
2022-09-12T18:09:43.913Z,100089.66
2022-09-12T18:12:20.246Z,100062.59
2022-09-12T18:14:48.560Z,100093.03
2022-09-12T18:17:16.667Z,100093.06
2022-09-12T18:19:44.689Z,100090.53
2022-09-12T18:22:13.113Z,100094.25
2022-09-12T18:24:42.332Z,100089.91
2022-09-12T18:27:13.499Z,100039.56
2022-09-12T18:29:41.423Z,100084.72
2022-09-12T18:32:09.465Z,99948.91
2022-09-12T18:34:45.060Z,100087.44
2022-09-12T18:37:20.369Z,100082.13
2022-09-12T18:39:50.108Z,100092.00
2022-09-12T18:42:18.061Z,100085.47
2022-09-12T18:44:46.151Z,100040.00
2022-09-12T18:47:26.087Z,100082.00
2022-09-12T18:49:53.984Z,100061.88
2022-09-12T18:52:22.168Z,100049.78
2022-09-12T18:54:51.571Z,100078.75
2022-09-12T18:57:19.506Z,100074.56
2022-09-12T18:59:47.809Z,99977.13
2022-09-12T19:02:17.214Z,100091.97
2022-09-12T19:04:48.467Z,100069.84
2022-09-12T19:07:17.632Z,100092.81
2022-09-12T19:09:56.772Z,100052.28
2022-09-12T19:12:35.799Z,100065.97
2022-09-12T19:15:06.826Z,100076.16
2022-09-12T19:18:00.097Z,100071.56
2022-09-12T19:20:28.097Z,100079.75
2022-09-12T19:22:56.026Z,100034.66
2022-09-12T19:25:25.440Z,100065.31
2022-09-12T19:27:59.011Z,100063.78
2022-09-12T19:30:27.249Z,100057.41
2022-09-12T19:32:58.270Z,100013.28
2022-09-12T19:35:27.424Z,100050.84
2022-09-12T19:37:55.783Z,100019.59
2022-09-12T19:43:19.564Z,100037.72
2022-09-12T19:45:48.884Z,100051.47
2022-09-12T19:48:17.127Z,100025.78
2022-09-12T19:50:45.138Z,100049.28
2022-09-12T19:53:13.677Z,100036.53
2022-09-12T19:55:42.993Z,100032.09
2022-09-12T19:58:10.912Z,100042.72
2022-09-12T20:00:39.313Z,100035.22
2022-09-12T20:03:07.323Z,100033.84
2022-09-12T20:05:38.499Z,99948.97
2022-09-12T20:08:10.087Z,100037.03
2022-09-12T20:10:37.930Z,100031.34
2022-09-12T20:13:07.565Z,100023.34
2022-09-12T20:15:35.563Z,100023.75
2022-09-12T20:18:03.739Z,100018.84
2022-09-12T20:20:32.657Z,99994.56
2022-09-12T20:23:00.539Z,99902.63
2022-09-12T20:25:28.409Z,99926.22
2022-09-12T20:28:00.037Z,100001.59
2022-09-12T20:30:29.803Z,99974.41
2022-09-12T20:32:57.785Z,100013.66
2022-09-12T20:35:25.819Z,100003.72
2022-09-12T20:37:53.714Z,99796.88
2022-09-12T20:40:21.654Z,100006.00
2022-09-12T20:42:49.644Z,99989.63
2022-09-12T20:45:20.024Z,100006.59
2022-09-12T20:47:51.401Z,100005.72
2022-09-12T20:50:20.151Z,100004.06
2022-09-12T20:52:47.977Z,100003.91
2022-09-12T20:55:15.942Z,99992.91
2022-09-12T20:57:43.822Z,99986.94
2022-09-12T21:00:12.911Z,99983.66
2022-09-12T21:02:40.951Z,99976.53
2022-09-12T21:05:10.822Z,99970.66
2022-09-12T21:07:38.774Z,99932.00
2022-09-12T21:10:07.496Z,99956.66
2022-09-12T21:12:35.408Z,99927.19
2022-09-12T21:15:03.324Z,99960.63
2022-09-12T21:17:31.351Z,99961.31
2022-09-12T21:19:59.228Z,99936.16
2022-09-12T21:22:28.473Z,99939.63
2022-09-12T21:24:56.298Z,99961.66
2022-09-12T21:27:24.210Z,99904.66
2022-09-12T21:29:52.280Z,99956.69
2022-09-12T21:32:20.157Z,99951.88
2022-09-12T21:34:47.956Z,99949.16
2022-09-12T21:37:16.414Z,99943.19
2022-09-12T21:39:45.705Z,99810.13
2022-09-12T21:42:13.665Z,99937.69
2022-09-12T21:44:41.407Z,99923.94
2022-09-12T21:47:09.290Z,99923.16
2022-09-12T21:49:37.169Z,99916.97
2022-09-12T21:52:05.367Z,99918.91
2022-09-12T21:54:34.975Z,99923.09
2022-09-12T21:57:04.409Z,99923.78
2022-09-12T21:59:32.332Z,99920.66
2022-09-12T22:02:00.403Z,99919.66
2022-09-12T22:04:28.274Z,99798.59
2022-09-12T22:06:57.432Z,99912.44
2022-09-12T22:09:28.820Z,99916.59
2022-09-12T22:11:58.855Z,99913.44
2022-09-12T22:14:28.171Z,99827.50
2022-09-12T22:17:01.732Z,99916.78
2022-09-12T22:19:29.890Z,99754.22
2022-09-12T22:22:14.944Z,99817.75
2022-09-12T22:24:49.056Z,99898.38
2022-09-12T22:27:17.736Z,99900.66
2022-09-12T22:29:52.956Z,99898.53
2022-09-12T22:32:25.056Z,99900.28
2022-09-12T22:34:53.046Z,99895.56
2022-09-12T22:37:20.889Z,99906.84
2022-09-12T22:39:58.284Z,99874.25
2022-09-12T22:42:26.288Z,99898.53
2022-09-12T22:44:55.602Z,99857.34
2022-09-12T22:47:29.347Z,99785.41
2022-09-12T22:50:00.340Z,99869.38
2022-09-12T22:52:28.235Z,99895.34
2022-09-12T22:54:59.257Z,99896.91
2022-09-12T22:57:27.181Z,99886.53
2022-09-12T22:59:56.414Z,99888.44
2022-09-12T23:02:24.674Z,99876.88
2022-09-12T23:04:57.963Z,99889.81
2022-09-12T23:07:29.864Z,99890.56
2022-09-12T23:10:22.414Z,99892.50
2022-09-12T23:13:13.916Z,99885.84
2022-09-12T23:16:04.405Z,99863.41
2022-09-12T23:18:42.160Z,99846.88
2022-09-12T23:21:15.394Z,99871.13
2022-09-12T23:24:02.011Z,99862.84
2022-09-12T23:26:42.070Z,99856.50
2022-09-12T23:29:35.302Z,99843.19
2022-09-12T23:32:16.564Z,99867.66
2022-09-12T23:35:01.341Z,99857.94
2022-09-12T23:37:37.032Z,99841.63
2022-09-12T23:43:31.728Z,99858.81
2022-09-12T23:46:05.057Z,99835.16
2022-09-12T23:48:40.661Z,99849.38
2022-09-12T23:51:21.333Z,99860.44
2022-09-12T23:53:57.248Z,99849.38
2022-09-12T23:56:38.151Z,99849.78
2022-09-12T23:59:12.709Z,99848.38
